Time;durP1;ratioP1;P1;durP2;ratioP2;P2;SDS_P1;SDS_P2;PMS_P1;PMS_P2;Temp;Humidity;BMP_temperature;BMP_pressure;BME280_temperature;BME280_humidity;BME280_pressure;Samples;Min_cycle;Max_cycle;Signal;HPM_P1;HPM_P2
2021/11/10 00:01:50;;;;;;;;;75.50;55.75;;;;;7.87;63.97;102154.16;4967301;28;45317;-71
2021/11/10 00:04:16;;;;;;;;;73.75;56.50;;;;;7.91;63.95;102158.34;4973767;28;45466;-71
2021/11/10 00:06:42;;;;;;;;;73.00;54.50;;;;;7.91;64.01;102145.25;5013059;27;45556;-71
2021/11/10 00:09:07;;;;;;;;;76.50;59.25;;;;;7.90;63.84;102144.41;4958946;28;45588;-71
2021/11/10 00:11:33;;;;;;;;;68.00;54.00;;;;;7.88;63.58;102142.78;4969025;28;45383;-71
2021/11/10 00:13:58;;;;;;;;;74.75;56.50;;;;;7.88;63.96;102143.59;4971968;28;47264;-72
2021/11/10 00:16:24;;;;;;;;;72.00;54.00;;;;;7.87;63.86;102130.59;4975074;28;45522;-72
2021/11/10 00:18:51;;;;;;;;;77.50;56.25;;;;;7.86;64.13;102134.13;5011144;27;45476;-70
2021/11/10 00:21:19;;;;;;;;;70.75;55.00;;;;;7.85;64.08;102132.41;4954832;28;45462;-70
2021/11/10 00:23:46;;;;;;;;;70.50;54.25;;;;;7.83;63.93;102110.72;4993738;28;45426;-73
2021/11/10 00:26:11;;;;;;;;;78.00;56.50;;;;;7.83;63.84;102103.69;5027430;28;45440;-71
2021/11/10 00:28:37;;;;;;;;;71.50;54.75;;;;;7.79;64.00;102098.66;5012892;27;45445;-72
2021/11/10 00:31:02;;;;;;;;;71.25;55.25;;;;;7.76;64.25;102113.56;4967984;28;45415;-71
2021/11/10 00:33:28;;;;;;;;;74.75;56.75;;;;;7.76;63.91;102124.03;4951257;28;46897;-72
2021/11/10 00:35:53;;;;;;;;;70.00;51.50;;;;;7.75;64.41;102127.56;4971649;28;45504;-71
2021/11/10 00:38:19;;;;;;;;;76.25;58.75;;;;;7.71;64.29;102128.59;5009233;28;45522;-72
2021/11/10 00:40:44;;;;;;;;;79.00;59.25;;;;;7.73;63.72;102121.56;4996039;27;46046;-71
2021/11/10 00:43:10;;;;;;;;;78.25;56.50;;;;;7.67;63.78;102113.94;4988557;28;45530;-70
2021/11/10 00:45:35;;;;;;;;;79.00;58.75;;;;;7.65;64.13;102115.75;5015898;28;45440;-72
2021/11/10 00:48:01;;;;;;;;;76.50;58.75;;;;;7.66;63.89;102100.94;4957697;28;45488;-73
2021/11/10 00:50:26;;;;;;;;;77.00;59.25;;;;;7.65;64.50;102091.38;4965237;28;45451;-69
2021/11/10 00:52:51;;;;;;;;;79.00;59.25;;;;;7.63;64.63;102090.56;4961823;28;45516;-71
2021/11/10 00:55:18;;;;;;;;;75.00;56.75;;;;;7.60;64.42;102092.41;4983060;28;45541;-72
2021/11/10 00:57:43;;;;;;;;;76.25;56.25;;;;;7.60;64.45;102091.53;4979661;28;45446;-72
2021/11/10 01:00:11;;;;;;;;;78.50;61.50;;;;;7.62;64.83;102079.28;4978568;28;45518;-71
2021/11/10 01:02:36;;;;;;;;;80.75;62.00;;;;;7.60;64.59;102070.63;4963530;27;45455;-72
2021/11/10 01:05:03;;;;;;;;;79.00;59.25;;;;;7.59;64.43;102066.31;4992341;27;45404;-73
2021/11/10 01:07:29;;;;;;;;;63.50;47.50;;;;;7.57;64.04;102066.38;4967474;28;45301;-70
2021/11/10 01:09:58;;;;;;;;;76.50;57.25;;;;;7.56;64.53;102069.03;5016308;28;45326;-71
2021/11/10 01:12:24;;;;;;;;;77.00;59.00;;;;;7.53;64.12;102085.72;5037146;27;46165;-72
2021/11/10 01:14:50;;;;;;;;;81.00;59.75;;;;;7.54;64.52;102082.19;4957419;28;47020;-71
2021/11/10 01:17:16;;;;;;;;;76.50;57.50;;;;;7.54;64.66;102069.13;5028159;28;45355;-71
2021/11/10 01:19:41;;;;;;;;;78.75;59.25;;;;;7.55;63.71;102085.63;4968667;28;45440;-72
2021/11/10 01:22:06;;;;;;;;;79.75;57.50;;;;;7.53;63.67;102079.66;4967138;28;45464;-71
2021/11/10 01:24:32;;;;;;;;;76.00;57.25;;;;;7.50;63.49;102084.97;4992650;28;45648;-71
2021/11/10 01:26:58;;;;;;;;;81.00;61.75;;;;;7.42;64.39;102086.16;5038181;28;45401;-73
2021/11/10 01:29:23;;;;;;;;;77.25;60.00;;;;;7.35;64.37;102073.38;4979219;28;45503;-70
2021/11/10 01:31:48;;;;;;;;;79.75;61.00;;;;;7.26;64.72;102075.44;4980886;28;45367;-74
2021/11/10 01:34:14;;;;;;;;;77.50;59.00;;;;;7.23;64.61;102077.31;4979290;28;45273;-74
2021/11/10 01:36:39;;;;;;;;;78.00;59.00;;;;;7.22;64.40;102071.22;5017937;27;45509;-73
2021/11/10 01:39:07;;;;;;;;;79.00;58.75;;;;;7.19;64.57;102075.75;4979295;28;45499;-72
2021/11/10 01:41:47;;;;;;;;;79.50;58.00;;;;;7.17;64.10;102088.00;4957461;28;48347;-71
2021/11/10 01:44:21;;;;;;;;;77.25;61.00;;;;;7.14;65.06;102083.75;4974340;28;45388;-71
2021/11/10 01:46:47;;;;;;;;;83.50;60.50;;;;;7.13;65.42;102066.34;4970582;28;45503;-71
2021/11/10 01:49:13;;;;;;;;;84.75;63.50;;;;;7.08;64.81;102058.69;4974847;28;45240;-72
2021/11/10 01:51:51;;;;;;;;;76.75;59.50;;;;;7.05;64.61;102063.19;4986805;27;46746;-71
2021/11/10 01:54:19;;;;;;;;;82.00;60.50;;;;;7.05;64.52;102074.47;4972403;28;45400;-71
2021/11/10 01:56:44;;;;;;;;;78.25;60.25;;;;;7.02;64.51;102068.50;4971449;28;45341;-71
2021/11/10 01:59:26;;;;;;;;;79.00;60.00;;;;;7.00;64.34;102081.63;4972808;28;45430;-71
2021/11/10 02:01:51;;;;;;;;;85.00;62.50;;;;;6.94;64.11;102085.34;4971576;28;45499;-72
2021/11/10 02:04:16;;;;;;;;;85.00;60.00;;;;;6.90;65.10;102090.72;4972477;28;45424;-72
2021/11/10 02:06:42;;;;;;;;;79.25;60.75;;;;;6.80;65.46;102078.91;4972327;28;45784;-71
2021/11/10 02:09:08;;;;;;;;;78.00;59.50;;;;;6.69;65.77;102084.53;5005581;28;45528;-71
2021/11/10 02:11:34;;;;;;;;;82.00;62.50;;;;;6.67;65.32;102076.75;4976721;28;47138;-72
2021/11/10 02:14:00;;;;;;;;;80.50;60.75;;;;;6.64;65.61;102074.25;4977123;28;45530;-72
2021/11/10 02:16:26;;;;;;;;;83.75;64.00;;;;;6.59;66.02;102060.50;4971474;28;45581;-71
2021/11/10 02:18:52;;;;;;;;;75.00;59.00;;;;;6.52;65.88;102048.59;4989414;28;45425;-72
2021/11/10 02:21:18;;;;;;;;;81.75;59.75;;;;;6.40;65.90;102055.94;4971425;28;45504;-72
2021/11/10 02:23:44;;;;;;;;;74.75;55.25;;;;;6.38;66.14;102067.34;4972989;28;45489;-72
2021/11/10 02:26:13;;;;;;;;;82.75;63.50;;;;;6.32;67.46;102063.19;4972533;28;45392;-72
2021/11/10 02:28:38;;;;;;;;;80.75;61.75;;;;;6.29;66.72;102063.28;4972365;28;45407;-73
2021/11/10 02:31:04;;;;;;;;;72.00;57.00;;;;;6.33;67.21;102064.91;4970853;28;47119;-73
2021/11/10 02:33:30;;;;;;;;;78.00;60.75;;;;;6.31;67.01;102051.06;4972155;28;45304;-72
2021/11/10 02:36:05;;;;;;;;;76.00;56.25;;;;;6.29;67.36;102045.03;4972240;28;45379;-72
2021/11/10 02:38:31;;;;;;;;;71.00;55.00;;;;;6.30;66.41;102038.91;4970260;28;45340;-71
2021/11/10 02:40:58;;;;;;;;;73.25;54.25;;;;;6.31;66.75;102045.84;4972908;28;46193;-71
2021/11/10 02:43:25;;;;;;;;;71.00;56.25;;;;;6.24;67.85;102050.41;4972446;28;45542;-72
2021/11/10 02:45:51;;;;;;;;;65.75;52.25;;;;;6.11;67.45;102034.34;4972202;28;45372;-74
2021/11/10 02:48:17;;;;;;;;;77.00;58.25;;;;;6.06;67.09;102036.25;4972373;28;45526;-71
2021/11/10 02:50:43;;;;;;;;;73.25;55.75;;;;;5.98;67.79;102033.06;4972300;28;46201;-72
2021/11/10 02:53:08;;;;;;;;;78.50;56.25;;;;;5.93;67.78;102040.16;4974866;28;45336;-72
2021/11/10 02:55:34;;;;;;;;;70.75;55.50;;;;;5.92;67.52;102038.44;4973160;28;45460;-72
2021/11/10 02:58:00;;;;;;;;;72.00;56.00;;;;;5.97;68.13;102036.53;4971830;28;45391;-74
2021/11/10 03:00:27;;;;;;;;;77.75;59.25;;;;;6.03;67.73;102052.03;4969756;28;46170;-73
2021/11/10 03:02:54;;;;;;;;;76.75;58.25;;;;;6.07;67.47;102047.53;4978796;28;45350;-73
2021/11/10 03:05:20;;;;;;;;;79.25;58.75;;;;;6.08;67.08;102034.44;4982591;28;45340;-73
2021/11/10 03:07:45;;;;;;;;;73.00;52.25;;;;;6.09;67.00;102041.34;4979508;28;45540;-73
2021/11/10 03:10:11;;;;;;;;;85.00;63.50;;;;;6.10;67.65;102037.84;4979648;28;46267;-72
2021/11/10 03:12:36;;;;;;;;;81.25;60.75;;;;;6.14;67.10;102027.28;4974508;28;45438;-72
2021/11/10 03:15:03;;;;;;;;;78.50;59.75;;;;;6.18;66.37;102036.75;4972794;28;45424;-72
2021/11/10 03:17:29;;;;;;;;;85.75;62.50;;;;;6.21;66.52;102031.41;4977771;28;45313;-72
2021/11/10 03:19:54;;;;;;;;;80.25;61.50;;;;;6.23;67.35;102032.22;4973442;28;47094;-72
2021/11/10 03:22:20;;;;;;;;;90.75;64.25;;;;;6.19;67.03;102028.84;4971831;28;45293;-72
2021/11/10 03:24:46;;;;;;;;;73.50;57.25;;;;;6.24;66.09;102034.75;4971538;28;45337;-72
2021/11/10 03:27:12;;;;;;;;;81.50;57.75;;;;;6.29;67.04;102037.19;4971813;28;45441;-71
2021/11/10 03:29:39;;;;;;;;;81.00;60.75;;;;;6.31;66.10;102039.78;4973276;28;46732;-71
2021/11/10 03:32:06;;;;;;;;;74.75;57.75;;;;;6.33;66.49;102045.78;4973177;28;45418;-72
2021/11/10 03:34:31;;;;;;;;;76.75;59.25;;;;;6.33;66.13;102044.03;4972516;28;45379;-72
2021/11/10 03:36:57;;;;;;;;;79.00;59.75;;;;;6.34;65.91;102058.75;4971698;28;47789;-71
2021/11/10 03:39:22;;;;;;;;;79.25;61.00;;;;;6.35;66.25;102060.47;4969769;28;46271;-72
2021/11/10 03:41:48;;;;;;;;;77.50;60.25;;;;;6.35;65.67;102044.81;4971307;28;45372;-72
2021/11/10 03:44:14;;;;;;;;;75.50;56.75;;;;;6.33;65.60;102041.44;4971219;28;45324;-71
2021/11/10 03:46:42;;;;;;;;;77.00;59.00;;;;;6.35;66.27;102046.59;4971397;28;45331;-71
2021/11/10 03:49:08;;;;;;;;;81.75;60.00;;;;;6.35;66.24;102043.97;4970646;28;46961;-72
2021/11/10 03:51:33;;;;;;;;;83.50;60.00;;;;;6.36;66.07;102049.13;4970678;28;45427;-73
2021/11/10 03:53:59;;;;;;;;;74.75;58.50;;;;;6.35;65.54;102043.97;4970742;28;45380;-71
2021/11/10 03:56:24;;;;;;;;;79.00;59.75;;;;;6.31;65.40;102051.06;4975393;28;45547;-71
2021/11/10 03:58:50;;;;;;;;;73.00;56.75;;;;;6.29;65.60;102052.84;4971510;28;46599;-72
2021/11/10 04:01:16;;;;;;;;;72.25;52.75;;;;;6.25;64.84;102066.91;4976751;28;45550;-72
2021/11/10 04:03:41;;;;;;;;;73.75;56.25;;;;;6.23;65.82;102076.56;4977224;28;45398;-73
2021/11/10 04:06:08;;;;;;;;;71.75;58.00;;;;;6.20;66.18;102072.31;4978086;28;45406;-71
2021/11/10 04:08:33;;;;;;;;;74.75;56.50;;;;;6.14;65.80;102071.66;4973931;28;46327;-73
2021/11/10 04:11:01;;;;;;;;;73.50;57.75;;;;;6.11;65.51;102102.16;4974217;28;45380;-71
2021/11/10 04:13:30;;;;;;;;;66.00;50.75;;;;;6.08;65.68;102112.72;4971690;28;45371;-73
2021/11/10 04:15:56;;;;;;;;;70.50;53.50;;;;;6.06;66.26;102100.63;4973469;28;45700;-72
2021/11/10 04:18:21;;;;;;;;;72.00;55.50;;;;;6.05;65.55;102115.41;4980193;28;47083;-74
2021/11/10 04:20:47;;;;;;;;;61.25;44.75;;;;;6.06;66.09;102118.91;4970876;28;45607;-72
2021/11/10 04:23:13;;;;;;;;;63.25;48.75;;;;;6.07;65.82;102111.00;4972218;28;45359;-72
2021/11/10 04:25:39;;;;;;;;;58.00;43.75;;;;;6.07;65.98;102100.56;4970482;28;45622;-72
2021/11/10 04:28:05;;;;;;;;;58.00;46.25;;;;;6.08;65.97;102097.06;4969502;28;46117;-72
2021/11/10 04:30:31;;;;;;;;;56.50;42.00;;;;;6.05;65.74;102094.53;4986891;27;45342;-72
2021/11/10 04:32:56;;;;;;;;;54.50;42.75;;;;;6.06;65.90;102098.03;4969030;28;45304;-72
2021/11/10 04:35:22;;;;;;;;;45.50;41.75;;;;;6.02;65.91;102085.97;4971717;28;45324;-72
2021/11/10 04:37:47;;;;;;;;;60.50;42.00;;;;;6.05;65.73;102081.50;4968684;28;45612;-71
2021/11/10 04:40:13;;;;;;;;;56.75;43.75;;;;;6.05;66.30;102085.88;4970436;28;45359;-73
2021/11/10 04:42:39;;;;;;;;;49.75;41.50;;;;;6.04;65.63;102085.00;4969819;28;45407;-72
2021/11/10 04:45:11;;;;;;;;;33.75;26.25;;;;;6.07;66.45;102092.75;4972748;28;45505;-71
2021/11/10 04:47:37;;;;;;;;;55.50;44.25;;;;;6.09;66.28;102109.19;4974633;28;45620;-71
2021/11/10 04:50:07;;;;;;;;;53.00;40.75;;;;;6.10;66.41;102110.06;4972458;28;45272;-71
2021/11/10 04:52:36;;;;;;;;;53.50;39.00;;;;;6.06;66.46;102104.06;4968627;28;45703;-72
2021/11/10 04:55:04;;;;;;;;;45.25;39.25;;;;;6.04;66.65;102094.59;4972823;28;45384;-72
2021/11/10 04:57:30;;;;;;;;;36.25;34.25;;;;;6.01;66.44;102069.47;4971261;28;46607;-70
2021/11/10 04:59:55;;;;;;;;;41.50;37.00;;;;;6.01;66.49;102059.03;4973274;28;45516;-72
2021/11/10 05:02:23;;;;;;;;;44.25;35.25;;;;;6.03;66.10;102046.81;4975012;28;45403;-73
2021/11/10 05:04:50;;;;;;;;;41.00;34.25;;;;;6.04;66.15;102043.25;4972132;28;45427;-71
2021/11/10 05:07:15;;;;;;;;;35.50;33.00;;;;;6.03;66.17;102032.88;4973459;28;46140;-71
2021/11/10 05:09:41;;;;;;;;;38.25;36.00;;;;;6.02;65.67;102029.44;4987341;28;45677;-72
2021/11/10 05:12:07;;;;;;;;;44.50;33.50;;;;;6.01;66.00;102032.94;4971305;28;45642;-72
2021/11/10 05:14:32;;;;;;;;;37.75;31.25;;;;;6.02;66.42;102037.25;4973703;28;45467;-72
2021/11/10 05:16:57;;;;;;;;;46.50;32.25;;;;;6.02;66.01;102023.34;4973544;28;45385;-72
2021/11/10 05:19:23;;;;;;;;;38.25;33.25;;;;;6.04;66.70;102032.81;4972319;28;45365;-73
2021/11/10 05:21:49;;;;;;;;;34.00;28.25;;;;;6.01;66.03;102032.09;4971776;28;45363;-71
2021/11/10 05:24:15;;;;;;;;;35.25;27.00;;;;;6.00;66.42;102023.41;4977260;28;45274;-71
2021/11/10 05:26:40;;;;;;;;;48.25;35.00;;;;;6.02;66.24;102016.41;4976540;28;46979;-72
2021/11/10 05:29:07;;;;;;;;;40.25;34.50;;;;;6.00;66.31;101999.94;4973381;28;45467;-72
2021/11/10 05:31:32;;;;;;;;;51.75;41.25;;;;;5.99;66.52;101993.00;4969409;28;45481;-72
2021/11/10 05:33:58;;;;;;;;;50.50;38.00;;;;;5.99;65.75;101987.78;4972688;28;45606;-73
2021/11/10 05:36:23;;;;;;;;;44.50;36.50;;;;;5.98;65.70;101983.50;4970920;28;46631;-72
2021/11/10 05:38:49;;;;;;;;;52.50;38.50;;;;;5.95;66.64;101983.56;4973811;28;45443;-73
2021/11/10 05:41:15;;;;;;;;;49.00;38.00;;;;;6.01;67.17;102008.63;4977175;28;45443;-72
2021/11/10 05:43:40;;;;;;;;;40.50;33.00;;;;;6.01;66.82;102009.47;4975076;28;45446;-72
2021/11/10 05:46:06;;;;;;;;;47.25;39.50;;;;;5.98;66.79;101996.53;4971568;28;46374;-72
2021/11/10 05:48:32;;;;;;;;;46.00;36.25;;;;;6.00;66.44;101997.31;4974011;28;45473;-72
2021/11/10 05:50:58;;;;;;;;;55.50;41.75;;;;;6.00;67.17;101999.09;4973688;28;45464;-72
2021/11/10 05:53:23;;;;;;;;;45.75;38.00;;;;;6.05;66.09;102011.06;4978303;28;45341;-74
2021/11/10 05:55:55;;;;;;;;;55.75;41.00;;;;;6.07;66.60;102017.09;4973940;28;47218;-71
2021/11/10 05:58:27;;;;;;;;;51.50;40.75;;;;;6.04;66.60;102016.34;4973174;28;45328;-72
2021/11/10 06:00:55;;;;;;;;;52.00;42.00;;;;;6.04;66.94;102021.56;4973445;28;45637;-72
2021/11/10 06:03:21;;;;;;;;;51.00;37.00;;;;;6.01;66.41;102027.72;4973178;28;45494;-73
2021/11/10 06:05:49;;;;;;;;;50.75;38.50;;;;;5.95;66.84;102030.50;4976320;28;45174;-73
2021/11/10 06:08:15;;;;;;;;;56.75;41.00;;;;;5.90;66.93;102043.72;4970531;28;45910;-72
2021/11/10 06:10:40;;;;;;;;;50.75;41.50;;;;;5.87;66.14;102050.78;4974098;28;45430;-72
2021/11/10 06:13:05;;;;;;;;;52.00;38.25;;;;;5.84;66.38;102051.75;4973730;28;47503;-72
2021/11/10 06:15:31;;;;;;;;;50.00;40.50;;;;;5.84;66.30;102061.31;4973777;27;45499;-72
2021/11/10 06:17:56;;;;;;;;;53.25;41.25;;;;;5.85;67.32;102074.31;4975575;28;45459;-72
2021/11/10 06:20:21;;;;;;;;;55.00;43.00;;;;;5.87;67.25;102088.13;4993715;28;45419;-72
2021/11/10 06:22:47;;;;;;;;;61.75;44.75;;;;;5.89;66.69;102088.09;4974804;28;45625;-73
2021/11/10 06:25:12;;;;;;;;;50.75;38.00;;;;;5.92;67.06;102095.81;4974004;28;46359;-73
2021/11/10 06:27:38;;;;;;;;;48.00;40.25;;;;;5.93;66.29;102098.38;4973771;28;45510;-73
2021/11/10 06:30:05;;;;;;;;;52.00;40.75;;;;;5.92;66.37;102101.03;4975169;28;45450;-72
2021/11/10 06:32:30;;;;;;;;;41.50;34.25;;;;;5.88;66.34;102094.22;4975482;28;45313;-73
2021/11/10 06:34:56;;;;;;;;;53.00;37.75;;;;;5.87;66.28;102103.78;4972600;28;46300;-72
2021/11/10 06:37:21;;;;;;;;;35.50;29.00;;;;;5.88;65.65;102112.47;4971842;28;45557;-72
2021/11/10 06:39:47;;;;;;;;;41.50;34.25;;;;;5.85;66.06;102108.22;4970440;28;45704;-71
2021/11/10 06:42:12;;;;;;;;;37.25;30.25;;;;;5.81;66.02;102116.19;4971081;28;45518;-71
2021/11/10 06:44:38;;;;;;;;;46.75;38.00;;;;;5.77;65.70;102116.28;4974431;28;45618;-72
2021/11/10 06:47:03;;;;;;;;;50.50;37.75;;;;;5.77;66.21;102131.06;4974579;28;45213;-72
2021/11/10 06:49:30;;;;;;;;;45.75;36.50;;;;;5.76;65.33;102143.25;4972011;28;45299;-72
2021/11/10 06:51:57;;;;;;;;;38.75;34.25;;;;;5.74;65.83;102147.66;4971793;28;45543;-73
2021/11/10 06:54:23;;;;;;;;;45.00;37.50;;;;;5.73;65.37;102153.75;4971511;28;45517;-73
2021/11/10 06:56:49;;;;;;;;;45.75;37.75;;;;;5.74;64.90;102158.09;4973194;28;45370;-73
2021/11/10 06:59:16;;;;;;;;;60.00;45.50;;;;;5.71;65.76;102171.22;4974069;28;45346;-72
2021/11/10 07:01:41;;;;;;;;;55.25;44.50;;;;;5.67;65.36;102163.53;4973129;28;45305;-73
2021/11/10 07:04:06;;;;;;;;;41.25;38.00;;;;;5.66;65.96;102167.06;4966311;28;46165;-72
2021/11/10 07:06:32;;;;;;;;;59.75;45.75;;;;;5.62;66.17;102166.31;4971778;28;45375;-73
2021/11/10 07:08:57;;;;;;;;;52.25;41.25;;;;;5.59;65.45;102159.44;4973262;28;45579;-72
2021/11/10 07:11:22;;;;;;;;;57.25;44.00;;;;;5.59;65.61;102153.34;4973534;28;45624;-73
2021/11/10 07:13:48;;;;;;;;;59.00;42.50;;;;;5.61;65.66;102156.75;4971870;28;46177;-74
2021/11/10 07:16:14;;;;;;;;;60.75;45.00;;;;;5.64;65.47;102153.22;4969564;28;45746;-72
2021/11/10 07:18:40;;;;;;;;;47.00;38.50;;;;;5.64;65.20;102158.44;4971866;28;45474;-73
2021/11/10 07:21:06;;;;;;;;;43.50;32.00;;;;;5.60;64.62;102153.31;4971394;28;45522;-72
2021/11/10 07:23:32;;;;;;;;;55.75;43.00;;;;;5.59;65.38;102137.69;4973232;28;46182;-73
2021/11/10 07:25:57;;;;;;;;;45.00;40.50;;;;;5.60;66.09;102137.69;4971808;28;45458;-73
2021/11/10 07:28:23;;;;;;;;;51.00;41.25;;;;;5.61;66.35;102128.09;4972212;28;45354;-73
2021/11/10 07:30:48;;;;;;;;;55.50;41.50;;;;;5.58;65.54;102129.03;4971880;28;45533;-72
2021/11/10 07:33:13;;;;;;;;;57.50;42.75;;;;;5.61;65.45;102135.91;4970178;28;46008;-73
2021/11/10 07:35:39;;;;;;;;;53.00;40.50;;;;;5.62;66.02;102129.81;4972208;28;45438;-74
2021/11/10 07:38:05;;;;;;;;;58.75;42.25;;;;;5.68;66.17;102124.41;4971401;28;45454;-73
2021/11/10 07:40:31;;;;;;;;;60.00;44.50;;;;;5.70;65.80;102122.59;4971991;28;45506;-72
2021/11/10 07:42:56;;;;;;;;;60.75;43.25;;;;;5.70;65.08;102138.22;4982265;28;48137;-74
2021/11/10 07:45:48;;;;;;;;;59.00;41.75;;;;;5.68;66.18;102128.75;4971794;28;45288;-73
2021/11/10 07:48:12;;;;;;;;;60.50;45.25;;;;;5.69;65.68;102115.66;4964201;28;45570;-73
2021/11/10 07:50:37;;;;;;;;;56.25;45.25;;;;;5.71;65.95;102116.47;4979113;28;45458;-73
2021/11/10 07:53:03;;;;;;;;;55.25;42.75;;;;;5.74;65.78;102125.94;4978031;28;46111;-75
2021/11/10 07:55:29;;;;;;;;;59.25;44.75;;;;;5.71;65.73;102142.53;4976735;28;45523;-73
2021/11/10 07:57:55;;;;;;;;;64.00;49.25;;;;;5.72;66.12;102135.56;4976163;28;45293;-73
2021/11/10 08:00:22;;;;;;;;;65.25;47.75;;;;;5.74;66.40;102133.78;4972604;28;45391;-73
2021/11/10 08:02:48;;;;;;;;;59.75;45.25;;;;;5.76;66.21;102127.63;4971866;28;46471;-73
2021/11/10 08:05:16;;;;;;;;;63.75;49.00;;;;;5.77;66.13;102133.66;4966650;28;45445;-72
2021/11/10 08:07:42;;;;;;;;;68.75;48.75;;;;;5.77;65.57;102144.97;4969395;28;45438;-72
2021/11/10 08:10:09;;;;;;;;;70.25;50.75;;;;;5.76;65.70;102158.03;4971359;28;45401;-72
2021/11/10 08:12:36;;;;;;;;;50.00;41.00;;;;;5.81;66.00;102168.34;4969458;28;46928;-73
2021/11/10 08:15:08;;;;;;;;;63.50;47.50;;;;;5.92;66.14;102174.06;4969758;28;45276;-72
2021/11/10 08:17:35;;;;;;;;;60.25;48.50;;;;;6.03;65.43;102160.72;4953724;28;45441;-73
2021/11/10 08:20:04;;;;;;;;;60.50;48.75;;;;;6.12;65.28;102155.19;4972316;28;45811;-73
2021/11/10 08:22:31;;;;;;;;;69.75;47.50;;;;;6.16;65.17;102153.34;4970525;27;47520;-73
2021/11/10 08:24:56;;;;;;;;;69.75;50.00;;;;;6.20;65.34;102154.94;4969525;28;45571;-72
2021/11/10 08:27:22;;;;;;;;;67.25;50.75;;;;;6.16;65.49;102150.72;4970800;28;45630;-72
2021/11/10 08:29:47;;;;;;;;;64.00;49.50;;;;;6.07;65.19;102155.34;4971145;28;45360;-73
2021/11/10 08:32:13;;;;;;;;;68.75;49.25;;;;;6.04;65.56;102165.88;4975741;28;45369;-72
2021/11/10 08:34:38;;;;;;;;;64.00;50.75;;;;;6.12;65.17;102155.19;4974480;28;45335;-72
2021/11/10 08:37:04;;;;;;;;;65.25;48.00;;;;;6.17;65.06;102147.22;4969867;28;45396;-72
2021/11/10 08:39:29;;;;;;;;;61.75;49.25;;;;;6.20;64.95;102157.56;4971755;28;46038;-72
2021/11/10 08:41:54;;;;;;;;;65.25;48.00;;;;;6.22;65.31;102158.38;4971258;28;46934;-73
2021/11/10 08:44:20;;;;;;;;;67.75;48.00;;;;;6.24;65.58;102164.38;4971652;28;45445;-72
2021/11/10 08:46:45;;;;;;;;;59.75;43.75;;;;;6.25;65.21;102159.13;4971324;28;45357;-74
2021/11/10 08:49:12;;;;;;;;;66.25;47.75;;;;;6.26;65.76;102168.63;4964745;28;45508;-71
2021/11/10 08:51:39;;;;;;;;;63.75;48.00;;;;;6.27;64.96;102164.28;4963345;28;46967;-74
2021/11/10 08:54:05;;;;;;;;;69.00;48.25;;;;;6.35;65.87;102162.25;4970142;28;45776;-72
2021/11/10 08:56:31;;;;;;;;;63.75;48.00;;;;;6.40;64.85;102149.91;4972794;28;45296;-73
2021/11/10 08:58:58;;;;;;;;;57.75;40.50;;;;;6.48;64.99;102167.09;4970262;28;45348;-72
2021/11/10 09:01:23;;;;;;;;;60.75;45.50;;;;;6.52;65.13;102173.91;4970061;28;45501;-72
2021/11/10 09:03:49;;;;;;;;;68.00;49.00;;;;;6.56;64.39;102170.28;4970819;28;45512;-73
2021/11/10 09:06:14;;;;;;;;;64.50;47.25;;;;;6.57;64.63;102158.94;4972328;28;45334;-73
2021/11/10 09:08:40;;;;;;;;;65.75;49.50;;;;;6.55;64.52;102173.78;4972232;28;45257;-73
2021/11/10 09:11:05;;;;;;;;;66.50;51.50;;;;;6.54;64.87;102177.28;4967406;28;47773;-72
2021/11/10 09:13:31;;;;;;;;;66.00;51.75;;;;;6.56;64.68;102185.94;4969202;28;45276;-73
2021/11/10 09:15:57;;;;;;;;;71.50;50.75;;;;;6.63;64.95;102166.56;4975818;28;45242;-73
2021/11/10 09:18:24;;;;;;;;;65.50;50.00;;;;;6.62;63.82;102157.03;4973091;28;45600;-71
2021/11/10 09:20:49;;;;;;;;;67.50;51.25;;;;;6.59;64.23;102151.88;4974260;28;46047;-73
2021/11/10 09:23:18;;;;;;;;;68.25;49.00;;;;;6.50;64.69;102165.25;4976985;28;45503;-72
2021/11/10 09:25:45;;;;;;;;;65.25;50.50;;;;;6.41;64.84;102156.84;4973323;28;45418;-72
2021/11/10 09:28:13;;;;;;;;;62.25;49.75;;;;;6.37;64.63;102155.25;4970743;28;45591;-72
2021/11/10 09:30:40;;;;;;;;;64.25;45.75;;;;;6.37;64.58;102150.03;4971604;28;47149;-71
2021/11/10 09:33:07;;;;;;;;;69.25;52.25;;;;;6.42;65.05;102142.91;4974844;28;45352;-75
2021/11/10 09:35:33;;;;;;;;;71.25;54.50;;;;;6.42;65.31;102153.34;4975570;28;45435;-73
2021/11/10 09:37:59;;;;;;;;;69.25;48.25;;;;;6.44;65.68;102156.72;4975644;28;45424;-72
2021/11/10 09:40:28;;;;;;;;;74.75;52.00;;;;;6.47;64.87;102162.75;4973546;28;46270;-72
2021/11/10 09:42:54;;;;;;;;;64.75;48.50;;;;;6.51;65.19;102151.31;4967159;28;45880;-73
2021/11/10 09:45:24;;;;;;;;;71.75;53.75;;;;;6.59;64.70;102144.06;4972568;28;45336;-73
2021/11/10 09:47:51;;;;;;;;;70.25;51.25;;;;;6.63;64.40;102148.28;4978946;28;45421;-74
2021/11/10 09:50:20;;;;;;;;;67.50;51.50;;;;;6.64;64.68;102168.25;4976671;28;45345;-73
2021/11/10 09:52:46;;;;;;;;;75.75;55.00;;;;;6.67;64.72;102177.72;4973473;28;45588;-73
2021/11/10 09:55:13;;;;;;;;;72.00;52.50;;;;;6.74;64.26;102181.84;4974906;28;45363;-73
2021/11/10 09:57:40;;;;;;;;;75.00;56.00;;;;;6.82;64.20;102186.81;4990587;28;45458;-72
2021/11/10 10:00:11;;;;;;;;;73.00;53.75;;;;;6.94;63.89;102192.47;4973129;28;46089;-73
2021/11/10 10:02:37;;;;;;;;;64.25;46.50;;;;;7.09;63.59;102191.03;4974076;28;45382;-73
2021/11/10 10:05:04;;;;;;;;;69.50;54.25;;;;;7.17;64.25;102193.38;4973563;28;45522;-73
2021/11/10 10:07:30;;;;;;;;;82.00;56.25;;;;;7.19;64.08;102198.56;4972748;28;45542;-72
2021/11/10 10:09:55;;;;;;;;;80.75;60.00;;;;;7.21;63.20;102201.97;4970886;28;46026;-73
2021/11/10 10:12:20;;;;;;;;;72.00;52.00;;;;;7.22;64.24;102206.28;4971208;28;45408;-71
2021/11/10 10:14:47;;;;;;;;;78.50;57.50;;;;;7.22;63.71;102206.28;4972120;28;45597;-74
2021/11/10 10:17:34;;;;;;;;;82.00;57.00;;;;;7.30;63.37;102219.06;4972590;28;45384;-74
2021/11/10 10:20:00;;;;;;;;;63.75;50.50;;;;;7.35;63.78;102225.84;4969700;28;46896;-67
2021/11/10 10:22:25;;;;;;;;;77.25;54.25;;;;;7.17;63.04;102221.28;4968165;28;45540;-71
2021/11/10 10:24:55;;;;;;;;;81.75;58.75;;;;;6.97;63.67;102201.94;4986487;28;45454;-66
2021/11/10 10:27:24;;;;;;;;;78.75;54.50;;;;;6.84;64.02;102201.53;4970364;28;45422;-66
2021/11/10 10:30:27;;;;;;;;;87.50;59.25;;;;;6.72;64.45;102189.75;4972036;28;46313;-65
2021/11/10 10:32:55;;;;;;;;;80.00;57.75;;;;;6.53;65.01;102175.63;4971173;28;46173;-64
2021/11/10 10:35:32;;;;;;;;;72.75;58.00;;;;;6.38;65.00;102162.19;4974495;28;45447;-67
2021/11/10 10:38:00;;;;;;;;;69.50;44.50;;;;;6.40;65.11;102167.34;4975578;28;45562;-76
2021/11/10 10:40:27;;;;;;;;;83.25;61.75;;;;;6.50;65.87;102170.47;4973161;28;46705;-72
2021/11/10 10:42:54;;;;;;;;;84.75;62.00;;;;;6.64;65.43;102162.19;4971083;28;45526;-77
2021/11/10 10:45:29;;;;;;;;;78.50;59.25;;;;;6.83;65.81;102141.50;4975724;28;45552;-75
2021/11/10 10:48:00;;;;;;;;;79.25;58.75;;;;;6.99;65.17;102155.69;4972971;28;45167;-75
2021/11/10 10:50:49;;;;;;;;;78.75;56.25;;;;;7.13;65.54;102159.59;4972979;28;45358;-75
2021/11/10 10:53:19;;;;;;;;;82.50;63.00;;;;;7.30;64.57;102154.56;4992964;28;45473;-76
2021/11/10 10:55:49;;;;;;;;;119.00;103.67;;;;;7.44;64.92;102144.44;4976506;28;45407;-76
2021/11/10 10:58:37;;;;;;;;;102.00;88.75;;;;;7.59;64.83;102142.16;4975400;28;45588;-79
2021/11/10 11:01:26;;;;;;;;;96.00;83.75;;;;;7.75;64.69;102126.72;4977332;28;46316;-78
2021/11/10 11:04:03;;;;;;;;;83.00;59.00;;;;;7.87;63.77;102130.59;4974438;28;45585;-76
2021/11/10 11:06:45;;;;;;;;;79.00;58.75;;;;;7.91;63.59;102121.69;4965604;28;45336;-74
2021/11/10 11:09:24;;;;;;;;;77.50;60.50;;;;;8.03;63.64;102126.44;4967563;28;45453;-75
2021/11/10 11:12:01;;;;;;;;;86.50;61.75;;;;;8.14;63.73;102123.38;4973121;28;46255;-74
2021/11/10 11:17:26;;;;;;;;;74.00;57.75;;;;;8.24;63.49;102114.22;4958591;28;45431;-77
2021/11/10 11:19:52;;;;;;;;;85.75;61.00;;;;;8.29;63.16;102111.44;4974966;28;48687;-78